createdAt,value
2017-11-14T00:00:39.818Z,90.70
2017-11-14T00:03:08.134Z,90.60
2017-11-14T00:05:36.420Z,90.60
2017-11-14T00:08:04.754Z,91.00
2017-11-14T00:10:33.045Z,90.50
2017-11-14T00:13:01.334Z,90.50
2017-11-14T00:15:29.645Z,90.40
2017-11-14T00:17:57.929Z,90.40
2017-11-14T00:20:26.304Z,90.40
2017-11-14T00:22:54.590Z,90.40
2017-11-14T00:25:22.125Z,90.40
2017-11-14T00:27:50.418Z,90.40
2017-11-14T00:30:19.254Z,90.80
2017-11-14T00:32:47.545Z,90.40
2017-11-14T00:35:15.834Z,90.30
2017-11-14T00:37:44.144Z,90.30
2017-11-14T00:40:12.428Z,90.30
2017-11-14T00:42:40.744Z,90.40
2017-11-14T00:45:09.030Z,90.40
2017-11-14T00:47:37.353Z,90.40
2017-11-14T00:50:05.649Z,90.40
2017-11-14T00:52:33.985Z,90.50
2017-11-14T00:55:02.281Z,90.50
2017-11-14T00:57:30.569Z,90.40
2017-11-14T00:59:58.874Z,90.40
2017-11-14T01:02:27.162Z,90.40
2017-11-14T01:04:55.474Z,90.50
2017-11-14T01:07:23.765Z,90.40
2017-11-14T01:09:52.074Z,90.40
2017-11-14T01:12:20.359Z,90.40
2017-11-14T01:14:48.692Z,90.30
2017-11-14T01:17:17.007Z,90.30
2017-11-14T01:19:45.298Z,90.20
2017-11-14T01:22:13.610Z,90.30
2017-11-14T01:24:41.907Z,90.30
2017-11-14T01:27:10.218Z,90.30
2017-11-14T01:29:37.833Z,90.30
2017-11-14T01:32:06.145Z,90.10
2017-11-14T01:34:34.449Z,90.50
2017-11-14T01:37:02.795Z,90.40
2017-11-14T01:39:31.113Z,90.40
2017-11-14T01:41:59.401Z,90.30
2017-11-14T01:44:27.741Z,90.20
2017-11-14T01:46:56.030Z,90.30
2017-11-14T01:49:24.350Z,90.30
2017-11-14T01:51:52.634Z,90.20
2017-11-14T01:54:20.950Z,90.20
2017-11-14T01:56:49.237Z,90.30
2017-11-14T01:59:17.524Z,90.30
2017-11-14T02:01:45.826Z,90.30
2017-11-14T02:04:14.167Z,90.30
2017-11-14T02:06:42.472Z,90.30
2017-11-14T02:09:10.761Z,90.30
2017-11-14T02:11:39.097Z,90.20
2017-11-14T02:14:07.398Z,90.20
2017-11-14T02:16:35.729Z,90.20
2017-11-14T02:19:04.018Z,90.20
2017-11-14T02:21:32.409Z,90.20
2017-11-14T02:24:00.722Z,90.20
2017-11-14T02:26:29.182Z,90.20
2017-11-14T02:28:57.497Z,90.60
2017-11-14T02:31:25.790Z,90.20
2017-11-14T02:33:54.097Z,90.20
2017-11-14T02:36:22.387Z,90.30
2017-11-14T02:38:50.694Z,90.30
2017-11-14T02:41:18.978Z,90.30
2017-11-14T02:43:47.315Z,90.30
2017-11-14T02:46:15.614Z,90.00
2017-11-14T02:48:43.909Z,90.80
2017-11-14T02:51:12.225Z,90.30
2017-11-14T02:53:40.513Z,90.30
2017-11-14T02:56:08.822Z,90.30
2017-11-14T02:58:37.111Z,90.30
2017-11-14T03:01:05.438Z,90.30
2017-11-14T03:03:33.722Z,90.40
2017-11-14T03:06:02.037Z,90.50
2017-11-14T03:08:29.558Z,90.40
2017-11-14T03:10:57.885Z,90.40
2017-11-14T03:13:26.170Z,90.40
2017-11-14T03:15:54.458Z,90.40
2017-11-14T03:18:22.765Z,90.40
2017-11-14T03:20:51.056Z,90.50
2017-11-14T03:23:19.365Z,90.50
2017-11-14T03:25:47.654Z,90.50
2017-11-14T03:28:15.955Z,90.50
2017-11-14T03:30:44.239Z,90.50
2017-11-14T03:33:12.546Z,90.50
2017-11-14T03:35:40.829Z,90.50
2017-11-14T03:38:09.149Z,90.50
2017-11-14T03:40:37.429Z,90.60
2017-11-14T03:43:05.734Z,90.70
2017-11-14T03:45:34.041Z,90.70
2017-11-14T03:48:01.561Z,90.70
2017-11-14T03:50:29.870Z,90.60
2017-11-14T03:52:58.157Z,90.60
2017-11-14T03:55:27.214Z,90.50
2017-11-14T03:57:55.616Z,90.50
2017-11-14T04:00:23.961Z,90.60
2017-11-14T04:02:52.254Z,90.60
2017-11-14T04:05:20.543Z,90.60
2017-11-14T04:07:48.868Z,90.60
2017-11-14T04:10:18.074Z,90.60
2017-11-14T04:12:46.394Z,90.50
2017-11-14T04:15:14.679Z,90.60
2017-11-14T04:17:42.984Z,90.70
2017-11-14T04:20:11.282Z,90.50
2017-11-14T04:22:39.566Z,90.50
2017-11-14T04:25:07.883Z,90.50
2017-11-14T04:27:36.178Z,90.50
2017-11-14T04:30:04.487Z,90.50
2017-11-14T04:32:32.774Z,90.40
2017-11-14T04:35:00.378Z,90.40
2017-11-14T04:37:28.664Z,90.40
2017-11-14T04:39:56.241Z,90.30
2017-11-14T04:42:24.521Z,90.40
2017-11-14T04:44:53.513Z,90.50
2017-11-14T04:47:21.825Z,90.60
2017-11-14T04:49:50.126Z,90.80
2017-11-14T04:52:18.429Z,90.90
2017-11-14T04:54:46.715Z,90.90
2017-11-14T04:57:15.031Z,91.30
2017-11-14T04:59:43.322Z,91.00
2017-11-14T05:02:11.704Z,91.20
2017-11-14T05:04:39.993Z,91.10
2017-11-14T05:07:08.298Z,91.00
2017-11-14T05:09:36.614Z,91.00
2017-11-14T05:12:04.906Z,90.80
2017-11-14T05:14:33.217Z,90.80
2017-11-14T05:17:01.510Z,90.70
2017-11-14T05:19:29.818Z,90.80
2017-11-14T05:21:58.114Z,90.80
2017-11-14T05:24:26.490Z,90.90
2017-11-14T05:26:54.781Z,90.80
2017-11-14T05:29:23.065Z,90.80
2017-11-14T05:31:51.377Z,90.90
2017-11-14T05:34:19.665Z,90.90
2017-11-14T05:36:47.978Z,90.70
2017-11-14T05:39:16.271Z,90.70
2017-11-14T05:41:44.577Z,90.60
2017-11-14T05:44:12.861Z,90.60
2017-11-14T05:46:42.165Z,90.70
2017-11-14T05:49:10.446Z,90.70
2017-11-14T05:51:38.745Z,90.60
2017-11-14T05:54:07.053Z,90.60
2017-11-14T05:56:35.338Z,90.80
2017-11-14T05:59:04.464Z,90.90
2017-11-14T06:01:32.753Z,91.00
2017-11-14T06:04:01.062Z,91.10
2017-11-14T06:06:29.366Z,91.10
2017-11-14T06:08:57.683Z,91.10
2017-11-14T06:11:25.973Z,91.20
2017-11-14T06:13:54.302Z,91.10
2017-11-14T06:16:22.598Z,91.20
2017-11-14T06:18:50.894Z,91.20
2017-11-14T06:21:19.214Z,91.30
2017-11-14T06:23:47.514Z,91.30
2017-11-14T06:26:15.821Z,91.30
2017-11-14T06:28:44.100Z,91.20
2017-11-14T06:31:12.406Z,91.20
2017-11-14T06:33:40.703Z,91.10
2017-11-14T06:36:09.010Z,91.10
2017-11-14T06:38:37.298Z,91.20
2017-11-14T06:41:05.611Z,91.20
2017-11-14T06:43:33.894Z,91.10
2017-11-14T06:46:02.214Z,91.10
2017-11-14T06:48:29.730Z,91.10
2017-11-14T06:50:58.061Z,91.20
2017-11-14T06:53:26.340Z,91.20
2017-11-14T06:55:54.650Z,91.20
2017-11-14T06:58:22.181Z,91.20
2017-11-14T07:00:50.485Z,91.10
2017-11-14T07:03:18.765Z,91.20
2017-11-14T07:05:47.073Z,91.20
2017-11-14T07:08:15.365Z,91.20
2017-11-14T07:10:43.681Z,91.20
2017-11-14T07:13:11.974Z,91.20
2017-11-14T07:15:40.280Z,91.20
2017-11-14T07:18:08.583Z,91.20
2017-11-14T07:20:36.907Z,91.20
2017-11-14T07:23:05.199Z,91.30
2017-11-14T07:25:33.509Z,91.30
2017-11-14T07:28:01.032Z,91.20
2017-11-14T07:30:29.916Z,91.30
2017-11-14T07:32:58.214Z,91.30
2017-11-14T07:35:26.528Z,91.30
2017-11-14T07:37:54.815Z,91.20
2017-11-14T07:40:23.130Z,91.20
2017-11-14T07:42:51.429Z,91.20
2017-11-14T07:45:19.745Z,91.10
2017-11-14T07:47:48.042Z,91.20
2017-11-14T07:50:16.361Z,91.30
2017-11-14T07:52:43.889Z,91.30
2017-11-14T07:55:12.209Z,91.30
2017-11-14T07:57:40.527Z,91.30
2017-11-14T08:00:08.813Z,91.70
2017-11-14T08:02:37.121Z,91.40
2017-11-14T08:05:05.411Z,91.50
2017-11-14T08:07:33.718Z,91.50
2017-11-14T08:10:02.020Z,91.50
2017-11-14T08:12:30.345Z,91.60
2017-11-14T08:14:59.534Z,91.50
2017-11-14T08:17:27.866Z,91.50
2017-11-14T08:19:56.153Z,91.50
2017-11-14T08:22:24.459Z,91.50
2017-11-14T08:24:52.752Z,91.50
2017-11-14T08:27:21.061Z,91.50
2017-11-14T08:29:49.342Z,91.50
2017-11-14T08:32:17.644Z,91.40
2017-11-14T08:34:45.945Z,91.40
2017-11-14T08:37:14.258Z,91.40
2017-11-14T08:39:42.537Z,91.30
2017-11-14T08:42:10.845Z,91.30
2017-11-14T08:44:39.138Z,91.50
2017-11-14T08:47:07.503Z,90.90
2017-11-14T08:49:35.797Z,90.80
2017-11-14T08:52:04.096Z,90.70
2017-11-14T08:54:32.389Z,90.60
2017-11-14T08:57:00.697Z,90.50
2017-11-14T08:59:29.053Z,90.50
2017-11-14T09:01:57.376Z,90.60
2017-11-14T09:04:25.657Z,90.70
2017-11-14T09:06:53.957Z,90.60
2017-11-14T09:09:22.241Z,90.60
2017-11-14T09:11:49.784Z,90.60
2017-11-14T09:14:18.080Z,89.80
2017-11-14T09:16:46.390Z,88.50
2017-11-14T09:19:14.682Z,87.10
2017-11-14T09:21:42.994Z,86.20
2017-11-14T09:24:11.289Z,85.10
2017-11-14T09:26:39.794Z,84.00
2017-11-14T09:29:08.086Z,83.00
2017-11-14T09:31:36.378Z,82.50
2017-11-14T09:34:04.697Z,82.20
2017-11-14T09:36:32.994Z,82.90
2017-11-14T09:39:01.478Z,82.10
2017-11-14T09:41:29.762Z,82.10
2017-11-14T09:43:59.050Z,81.80
2017-11-14T09:46:27.341Z,81.50
2017-11-14T09:48:55.642Z,80.90
2017-11-14T09:51:23.930Z,80.00
2017-11-14T09:53:52.245Z,78.80
2017-11-14T09:56:20.537Z,77.40
2017-11-14T09:58:48.851Z,76.50
2017-11-14T10:01:17.147Z,76.00
2017-11-14T10:03:45.465Z,75.20
2017-11-14T10:06:13.757Z,74.90
2017-11-14T10:08:42.070Z,74.30
2017-11-14T10:11:09.592Z,74.30
2017-11-14T10:13:37.917Z,73.00
2017-11-14T10:16:06.228Z,72.90
2017-11-14T10:18:34.542Z,73.20
2017-11-14T10:21:02.830Z,72.80
2017-11-14T10:23:31.150Z,72.40
2017-11-14T10:25:59.443Z,72.40
2017-11-14T10:28:27.783Z,71.90
2017-11-14T10:30:56.077Z,71.20
2017-11-14T10:33:24.399Z,70.50
2017-11-14T10:35:52.689Z,70.80
2017-11-14T10:38:21.009Z,69.70
2017-11-14T10:40:49.304Z,70.20
2017-11-14T10:43:17.618Z,70.60
2017-11-14T10:45:45.912Z,70.60
2017-11-14T10:48:14.237Z,70.50
2017-11-14T10:50:43.009Z,70.60
2017-11-14T10:53:11.801Z,70.20
2017-11-14T10:55:40.129Z,69.50
2017-11-14T10:58:08.441Z,69.40
2017-11-14T11:00:39.411Z,69.40
2017-11-14T11:03:07.767Z,68.90
2017-11-14T11:05:36.065Z,69.40
2017-11-14T11:08:04.446Z,69.40
2017-11-14T11:10:32.734Z,68.50
2017-11-14T11:13:01.030Z,67.20
2017-11-14T11:15:29.347Z,68.30
2017-11-14T11:17:57.645Z,69.40
2017-11-14T11:20:25.966Z,69.90
2017-11-14T11:22:54.261Z,69.70
2017-11-14T11:25:22.568Z,69.50
2017-11-14T11:27:50.864Z,68.70
2017-11-14T11:30:19.170Z,68.30
2017-11-14T11:32:47.465Z,68.70
2017-11-14T11:35:15.765Z,68.50
2017-11-14T11:37:44.058Z,69.00
2017-11-14T11:40:12.365Z,70.20
2017-11-14T11:42:40.653Z,70.30
2017-11-14T11:45:08.973Z,69.60
2017-11-14T11:47:37.268Z,70.00
2017-11-14T11:50:05.585Z,69.50
2017-11-14T11:52:33.886Z,69.70
2017-11-14T11:55:02.210Z,69.60
2017-11-14T11:57:30.522Z,69.40
2017-11-14T11:59:58.853Z,69.20
2017-11-14T12:02:27.161Z,68.80
2017-11-14T12:04:55.499Z,68.40
2017-11-14T12:07:23.798Z,68.00
2017-11-14T12:09:52.122Z,67.10
2017-11-14T12:12:20.498Z,64.80
2017-11-14T12:14:48.814Z,64.80
2017-11-14T12:17:17.118Z,63.40
2017-11-14T12:19:45.425Z,62.70
2017-11-14T12:22:13.722Z,62.60
2017-11-14T12:24:42.033Z,62.60
2017-11-14T12:27:10.325Z,62.00
2017-11-14T12:29:38.645Z,61.60
2017-11-14T12:32:06.958Z,60.80
2017-11-14T12:34:35.270Z,60.80
2017-11-14T12:37:03.570Z,61.30
2017-11-14T12:39:31.892Z,59.90
2017-11-14T12:42:00.180Z,60.50
2017-11-14T12:44:28.491Z,61.60
2017-11-14T12:46:56.780Z,60.90
2017-11-14T12:49:25.129Z,61.10
2017-11-14T12:51:53.426Z,60.00
2017-11-14T12:54:21.709Z,60.30
2017-11-14T12:56:50.018Z,60.20
2017-11-14T12:59:18.306Z,60.10
2017-11-14T13:01:46.609Z,59.60
2017-11-14T13:04:14.910Z,59.40
2017-11-14T13:06:43.219Z,59.00
2017-11-14T13:09:11.505Z,58.60
2017-11-14T13:11:39.813Z,58.50
2017-11-14T13:14:08.098Z,58.90
2017-11-14T13:16:36.425Z,58.00
2017-11-14T13:19:04.714Z,58.50
2017-11-14T13:21:33.033Z,59.00
2017-11-14T13:24:01.325Z,58.30
2017-11-14T13:26:29.646Z,58.50
2017-11-14T13:28:57.946Z,58.70
2017-11-14T13:31:26.277Z,58.60
2017-11-14T13:33:54.581Z,58.80
2017-11-14T13:36:22.901Z,59.10
2017-11-14T13:38:51.185Z,60.10
2017-11-14T13:41:19.486Z,60.00
2017-11-14T13:43:47.774Z,60.20
2017-11-14T13:46:16.089Z,59.70
2017-11-14T13:48:44.386Z,59.90
2017-11-14T13:51:12.703Z,60.10
2017-11-14T13:53:41.001Z,60.00
2017-11-14T13:56:09.305Z,60.60
2017-11-14T13:58:37.588Z,60.70
2017-11-14T14:01:05.902Z,60.90
2017-11-14T14:03:34.185Z,61.30
2017-11-14T14:06:02.505Z,61.30
2017-11-14T14:08:30.804Z,60.90
2017-11-14T14:10:59.112Z,60.90
2017-11-14T14:13:27.478Z,61.60
2017-11-14T14:15:55.834Z,60.90
2017-11-14T14:18:24.129Z,59.60
2017-11-14T14:20:51.674Z,59.60
2017-11-14T14:23:19.965Z,59.90
2017-11-14T14:25:48.298Z,60.40
2017-11-14T14:28:16.595Z,60.30
2017-11-14T14:30:44.878Z,60.20
2017-11-14T14:33:13.181Z,60.30
2017-11-14T14:35:41.466Z,60.80
2017-11-14T14:38:09.778Z,60.90
2017-11-14T14:40:38.081Z,60.70
2017-11-14T14:43:06.383Z,60.60
2017-11-14T14:45:34.666Z,60.50
2017-11-14T14:48:02.982Z,60.10
2017-11-14T14:50:31.280Z,60.00
2017-11-14T14:52:59.586Z,59.50
2017-11-14T14:55:27.897Z,59.80
2017-11-14T14:57:56.197Z,60.00
2017-11-14T15:00:24.487Z,60.00
2017-11-14T15:02:52.797Z,60.60
2017-11-14T15:05:21.094Z,60.10
2017-11-14T15:07:49.420Z,60.40
2017-11-14T15:10:17.762Z,60.70
2017-11-14T15:12:46.118Z,60.50
2017-11-14T15:15:14.409Z,61.00
2017-11-14T15:17:42.718Z,60.60
2017-11-14T15:20:11.005Z,60.50
2017-11-14T15:22:39.330Z,60.60
2017-11-14T15:25:07.627Z,60.70
2017-11-14T15:27:35.941Z,61.50
2017-11-14T15:30:04.238Z,62.20
2017-11-14T15:32:32.553Z,62.60
2017-11-14T15:35:00.841Z,63.50
2017-11-14T15:37:29.153Z,63.30
2017-11-14T15:39:57.446Z,64.00
2017-11-14T15:42:25.760Z,65.30
2017-11-14T15:44:54.047Z,65.60
2017-11-14T15:47:22.361Z,66.10
2017-11-14T15:49:50.653Z,66.60
2017-11-14T15:52:19.062Z,67.20
2017-11-14T15:54:47.364Z,67.60
2017-11-14T15:57:15.669Z,68.10
2017-11-14T15:59:43.966Z,67.50
2017-11-14T16:02:12.276Z,67.80
2017-11-14T16:04:40.570Z,68.10
2017-11-14T16:07:08.898Z,68.20
2017-11-14T16:09:37.213Z,68.40
2017-11-14T16:12:05.512Z,68.70
2017-11-14T16:14:33.823Z,68.90
2017-11-14T16:17:02.123Z,69.50
2017-11-14T16:19:29.673Z,69.50
2017-11-14T16:21:57.957Z,70.50
2017-11-14T16:24:26.266Z,71.30
2017-11-14T16:26:54.564Z,71.60
2017-11-14T16:29:22.885Z,72.00
2017-11-14T16:31:51.173Z,72.20
2017-11-14T16:34:19.485Z,72.40
2017-11-14T16:36:47.769Z,72.20
2017-11-14T16:39:16.085Z,72.10
2017-11-14T16:41:44.398Z,72.10
2017-11-14T16:44:12.709Z,72.00
2017-11-14T16:46:41.007Z,71.90
2017-11-14T16:49:09.320Z,71.80
2017-11-14T16:51:37.610Z,72.10
2017-11-14T16:54:05.922Z,72.00
2017-11-14T16:56:34.209Z,72.40
2017-11-14T16:59:02.529Z,73.10
2017-11-14T17:01:30.821Z,73.30
2017-11-14T17:03:59.123Z,73.70
2017-11-14T17:06:27.417Z,74.30
2017-11-14T17:08:55.724Z,74.80
2017-11-14T17:11:24.026Z,75.10
2017-11-14T17:13:52.350Z,75.40
2017-11-14T17:16:20.645Z,75.80
2017-11-14T17:18:48.953Z,76.00
2017-11-14T17:21:17.253Z,76.20
2017-11-14T17:23:45.559Z,76.70
2017-11-14T17:26:13.860Z,76.90
2017-11-14T17:28:42.179Z,76.90
2017-11-14T17:31:10.469Z,77.90
2017-11-14T17:33:38.791Z,77.10
2017-11-14T17:36:07.094Z,77.40
2017-11-14T17:38:35.405Z,77.60
2017-11-14T17:41:03.702Z,77.70
2017-11-14T17:43:32.026Z,78.30
2017-11-14T17:46:00.318Z,78.80
2017-11-14T17:48:28.643Z,79.20
2017-11-14T17:50:56.930Z,79.40
2017-11-14T17:53:25.230Z,79.60
2017-11-14T17:55:53.550Z,79.60
2017-11-14T17:58:21.837Z,79.90
2017-11-14T18:00:50.146Z,80.20
2017-11-14T18:03:18.449Z,80.50
2017-11-14T18:05:46.788Z,80.60
2017-11-14T18:08:15.093Z,80.70
2017-11-14T18:10:43.405Z,81.60
2017-11-14T18:13:11.696Z,81.00
2017-11-14T18:15:40.009Z,81.30
2017-11-14T18:18:08.310Z,81.20
2017-11-14T18:20:36.617Z,81.50
2017-11-14T18:23:04.915Z,81.70
2017-11-14T18:25:33.226Z,81.90
2017-11-14T18:28:01.521Z,82.20
2017-11-14T18:30:29.846Z,82.40
2017-11-14T18:32:59.166Z,82.70
2017-11-14T18:35:27.478Z,82.90
2017-11-14T18:37:55.769Z,82.90
2017-11-14T18:40:23.304Z,82.90
2017-11-14T18:42:51.606Z,82.40
2017-11-14T18:45:19.917Z,83.20
2017-11-14T18:47:48.222Z,83.20
2017-11-14T18:50:16.546Z,83.20
2017-11-14T18:52:44.845Z,83.30
2017-11-14T18:55:13.156Z,83.40
2017-11-14T18:57:41.461Z,83.70
2017-11-14T19:00:09.769Z,84.10
2017-11-14T19:02:38.064Z,84.40
2017-11-14T19:05:06.376Z,84.50
2017-11-14T19:07:34.678Z,84.40
2017-11-14T19:10:02.989Z,84.40
2017-11-14T19:12:31.284Z,84.10
2017-11-14T19:14:59.593Z,84.00
2017-11-14T19:17:27.928Z,83.90
2017-11-14T19:19:55.466Z,83.90
2017-11-14T19:22:23.754Z,83.50
2017-11-14T19:24:52.058Z,83.30
2017-11-14T19:27:20.354Z,83.30
2017-11-14T19:29:48.639Z,83.30
2017-11-14T19:32:16.954Z,84.10
2017-11-14T19:34:45.253Z,83.30
2017-11-14T19:37:13.565Z,83.30
2017-11-14T19:39:41.851Z,83.30
2017-11-14T19:42:10.152Z,83.30
2017-11-14T19:44:38.446Z,83.20
2017-11-14T19:47:06.765Z,83.10
2017-11-14T19:49:35.059Z,83.10
2017-11-14T19:52:03.375Z,83.00
2017-11-14T19:54:31.661Z,82.80
2017-11-14T19:56:59.973Z,82.70
2017-11-14T19:59:28.262Z,82.60
2017-11-14T20:01:56.570Z,82.50
2017-11-14T20:04:24.870Z,82.30
2017-11-14T20:06:53.180Z,82.20
2017-11-14T20:09:21.514Z,82.30
2017-11-14T20:11:49.832Z,82.20
2017-11-14T20:14:18.122Z,82.20
2017-11-14T20:16:46.425Z,82.10
2017-11-14T20:19:14.718Z,82.00
2017-11-14T20:21:43.033Z,81.70
2017-11-14T20:24:11.326Z,81.70
2017-11-14T20:26:39.642Z,81.40
2017-11-14T20:29:07.951Z,81.60
2017-11-14T20:31:42.070Z,81.70
2017-11-14T20:34:10.360Z,81.90
2017-11-14T20:36:38.678Z,82.20
2017-11-14T20:39:06.967Z,83.30
2017-11-14T20:41:34.517Z,82.40
2017-11-14T20:44:02.800Z,82.80
2017-11-14T20:46:31.126Z,82.70
2017-11-14T20:48:59.417Z,82.80
2017-11-14T20:51:27.728Z,82.90
2017-11-14T20:53:56.018Z,82.90
2017-11-14T20:56:24.334Z,82.90
2017-11-14T20:58:52.630Z,82.90
2017-11-14T21:01:20.937Z,82.90
2017-11-14T21:03:49.238Z,83.00
2017-11-14T21:06:17.550Z,83.20
2017-11-14T21:08:45.854Z,83.20
2017-11-14T21:11:14.149Z,83.20
2017-11-14T21:13:42.462Z,83.20
2017-11-14T21:16:11.305Z,84.20
2017-11-14T21:18:39.629Z,83.50
2017-11-14T21:21:07.934Z,83.80
2017-11-14T21:23:36.246Z,83.90
2017-11-14T21:26:04.542Z,83.90
2017-11-14T21:28:32.861Z,84.00
2017-11-14T21:31:01.168Z,84.10
2017-11-14T21:33:29.485Z,84.10
2017-11-14T21:35:57.800Z,84.10
2017-11-14T21:38:26.121Z,84.90
2017-11-14T21:40:54.416Z,84.20
2017-11-14T21:43:22.731Z,84.30
2017-11-14T21:45:51.041Z,84.50
2017-11-14T21:48:19.354Z,84.60
2017-11-14T21:50:47.702Z,84.80
2017-11-14T21:53:16.046Z,84.80
2017-11-14T21:55:44.350Z,84.90
2017-11-14T21:58:12.658Z,85.00
2017-11-14T22:00:40.973Z,85.20
2017-11-14T22:03:09.261Z,85.30
2017-11-14T22:05:37.581Z,85.30
2017-11-14T22:08:05.896Z,85.40
2017-11-14T22:10:34.235Z,85.50
2017-11-14T22:13:02.530Z,85.60
2017-11-14T22:15:30.845Z,85.40
2017-11-14T22:17:59.152Z,85.50
2017-11-14T22:20:27.452Z,85.40
2017-11-14T22:22:55.765Z,85.30
2017-11-14T22:25:24.057Z,85.30
2017-11-14T22:27:52.381Z,85.40
2017-11-14T22:30:20.665Z,85.40
2017-11-14T22:32:48.957Z,85.40
2017-11-14T22:35:17.270Z,85.50
2017-11-14T22:37:45.562Z,85.70
2017-11-14T22:40:13.878Z,85.80
2017-11-14T22:42:42.175Z,85.90
2017-11-14T22:45:26.201Z,86.00
2017-11-14T22:47:54.493Z,86.10
2017-11-14T22:50:22.814Z,86.30
2017-11-14T22:52:51.104Z,86.30
2017-11-14T22:55:19.392Z,86.40
2017-11-14T22:57:47.714Z,87.30
2017-11-14T23:00:25.801Z,86.60
2017-11-14T23:02:54.112Z,86.70
2017-11-14T23:05:22.406Z,86.60
2017-11-14T23:07:50.735Z,86.70
2017-11-14T23:10:19.029Z,86.80
2017-11-14T23:12:47.326Z,86.60
2017-11-14T23:15:15.641Z,86.70
2017-11-14T23:17:43.929Z,87.00
2017-11-14T23:20:12.237Z,87.00
2017-11-14T23:22:40.533Z,87.10
2017-11-14T23:25:08.867Z,88.00
2017-11-14T23:27:37.178Z,88.10
2017-11-14T23:30:05.470Z,87.40
2017-11-14T23:32:33.795Z,87.40
2017-11-14T23:35:02.094Z,87.50
2017-11-14T23:37:30.408Z,87.40
2017-11-14T23:39:58.700Z,87.50
2017-11-14T23:42:27.018Z,88.40
2017-11-14T23:44:55.318Z,87.70
2017-11-14T23:47:23.646Z,87.90
2017-11-14T23:49:51.946Z,88.90
2017-11-14T23:52:20.240Z,88.00
2017-11-14T23:54:48.554Z,88.10
2017-11-14T23:57:16.853Z,88.10
2017-11-14T23:59:46.299Z,88.20
